sensor_id;sensor_type;location;lat;lon;timestamp;pressure;altitude;pressure_sealevel;temperature;humidity
69035;BME280;56091;55.756;37.412;2022-07-25T00:04:51;98267.47;;;20.67;65.48
69035;BME280;56091;55.756;37.412;2022-07-25T00:09:52;98253.69;;;20.52;65.28
69035;BME280;56091;55.756;37.412;2022-07-25T00:14:53;98252.91;;;20.51;65.68
69035;BME280;56091;55.756;37.412;2022-07-25T00:19:54;98260.06;;;20.56;66.47
69035;BME280;56091;55.756;37.412;2022-07-25T00:24:55;98251.28;;;20.50;66.17
69035;BME280;56091;55.756;37.412;2022-07-25T00:29:56;98249.34;;;20.51;66.71
69035;BME280;56091;55.756;37.412;2022-07-25T00:34:56;98250.72;;;20.44;66.86
69035;BME280;56091;55.756;37.412;2022-07-25T00:39:57;98252.44;;;20.37;66.95
69035;BME280;56091;55.756;37.412;2022-07-25T00:44:58;98242.53;;;20.32;66.83
69035;BME280;56091;55.756;37.412;2022-07-25T00:50:02;98249.94;;;20.32;66.90
69035;BME280;56091;55.756;37.412;2022-07-25T00:55:04;98238.78;;;20.24;67.39
69035;BME280;56091;55.756;37.412;2022-07-25T01:00:08;98250.31;;;20.18;67.70
69035;BME280;56091;55.756;37.412;2022-07-25T01:05:11;98238.00;;;20.12;67.56
69035;BME280;56091;55.756;37.412;2022-07-25T01:10:12;98240.28;;;20.09;67.90
69035;BME280;56091;55.756;37.412;2022-07-25T01:15:17;98238.81;;;20.00;68.25
69035;BME280;56091;55.756;37.412;2022-07-25T01:20:21;98251.91;;;19.94;68.96
69035;BME280;56091;55.756;37.412;2022-07-25T01:25:22;98256.13;;;19.79;69.66
69035;BME280;56091;55.756;37.412;2022-07-25T01:30:24;98250.38;;;19.60;70.17
69035;BME280;56091;55.756;37.412;2022-07-25T01:35:25;98262.09;;;19.60;70.58
69035;BME280;56091;55.756;37.412;2022-07-25T01:40:26;98257.28;;;19.45;71.48
69035;BME280;56091;55.756;37.412;2022-07-25T01:45:27;98252.69;;;19.37;71.32
69035;BME280;56091;55.756;37.412;2022-07-25T01:50:28;98261.94;;;19.44;71.20
69035;BME280;56091;55.756;37.412;2022-07-25T01:55:29;98248.03;;;19.37;71.02
69035;BME280;56091;55.756;37.412;2022-07-25T02:00:32;98234.91;;;19.30;71.54
69035;BME280;56091;55.756;37.412;2022-07-25T02:05:33;98254.69;;;19.48;71.30
69035;BME280;56091;55.756;37.412;2022-07-25T02:10:36;98252.06;;;19.52;71.11
69035;BME280;56091;55.756;37.412;2022-07-25T02:15:41;98257.09;;;19.62;70.59
69035;BME280;56091;55.756;37.412;2022-07-25T02:20:42;98254.81;;;19.64;70.51
69035;BME280;56091;55.756;37.412;2022-07-25T02:25:43;98261.78;;;19.62;71.16
69035;BME280;56091;55.756;37.412;2022-07-25T02:30:44;98256.88;;;19.67;71.22
69035;BME280;56091;55.756;37.412;2022-07-25T02:35:44;98261.00;;;19.86;70.58
69035;BME280;56091;55.756;37.412;2022-07-25T02:40:46;98268.56;;;19.89;70.53
69035;BME280;56091;55.756;37.412;2022-07-25T02:45:50;98267.53;;;19.81;71.00
69035;BME280;56091;55.756;37.412;2022-07-25T02:50:51;98256.00;;;19.76;71.04
69035;BME280;56091;55.756;37.412;2022-07-25T02:55:52;98256.69;;;19.85;71.17
69035;BME280;56091;55.756;37.412;2022-07-25T03:00:53;98258.97;;;19.95;71.21
69035;BME280;56091;55.756;37.412;2022-07-25T03:05:53;98244.84;;;19.93;70.76
69035;BME280;56091;55.756;37.412;2022-07-25T03:10:54;98233.78;;;19.89;70.48
69035;BME280;56091;55.756;37.412;2022-07-25T03:15:55;98232.44;;;19.96;70.25
69035;BME280;56091;55.756;37.412;2022-07-25T03:20:59;98198.09;;;19.86;70.05
69035;BME280;56091;55.756;37.412;2022-07-25T03:25:59;98247.75;;;20.37;69.43
69035;BME280;56091;55.756;37.412;2022-07-25T03:31:01;98251.63;;;20.48;69.34
69035;BME280;56091;55.756;37.412;2022-07-25T03:36:02;98245.56;;;20.67;68.69
69035;BME280;56091;55.756;37.412;2022-07-25T03:41:03;98249.56;;;20.70;68.48
69035;BME280;56091;55.756;37.412;2022-07-25T03:46:04;98250.16;;;20.63;69.13
69035;BME280;56091;55.756;37.412;2022-07-25T03:51:05;98255.06;;;20.70;69.25
69035;BME280;56091;55.756;37.412;2022-07-25T03:56:06;98263.59;;;20.56;69.63
69035;BME280;56091;55.756;37.412;2022-07-25T04:01:07;98259.16;;;20.64;69.38
69035;BME280;56091;55.756;37.412;2022-07-25T04:06:20;98241.34;;;20.58;69.48
69035;BME280;56091;55.756;37.412;2022-07-25T04:11:21;98253.06;;;20.83;68.97
69035;BME280;56091;55.756;37.412;2022-07-25T04:16:25;98250.97;;;20.92;68.95
69035;BME280;56091;55.756;37.412;2022-07-25T04:21:26;98255.88;;;20.99;68.45
69035;BME280;56091;55.756;37.412;2022-07-25T04:26:27;98254.25;;;21.26;68.05
69035;BME280;56091;55.756;37.412;2022-07-25T04:31:28;98244.47;;;21.41;66.85
69035;BME280;56091;55.756;37.412;2022-07-25T04:36:29;98219.28;;;21.51;66.36
69035;BME280;56091;55.756;37.412;2022-07-25T04:41:30;98222.41;;;21.66;65.39
69035;BME280;56091;55.756;37.412;2022-07-25T04:46:31;98245.31;;;21.73;66.15
69035;BME280;56091;55.756;37.412;2022-07-25T04:51:32;98235.56;;;21.76;65.24
69035;BME280;56091;55.756;37.412;2022-07-25T04:56:33;98248.66;;;21.98;64.74
69035;BME280;56091;55.756;37.412;2022-07-25T05:01:34;98236.72;;;22.07;64.61
69035;BME280;56091;55.756;37.412;2022-07-25T05:06:35;98233.09;;;22.02;64.59
69035;BME280;56091;55.756;37.412;2022-07-25T05:11:35;98253.09;;;22.35;63.48
69035;BME280;56091;55.756;37.412;2022-07-25T05:16:36;98248.66;;;22.46;62.33
69035;BME280;56091;55.756;37.412;2022-07-25T05:21:37;98246.25;;;22.45;62.08
69035;BME280;56091;55.756;37.412;2022-07-25T05:26:38;98239.59;;;22.46;62.46
69035;BME280;56091;55.756;37.412;2022-07-25T05:31:39;98247.75;;;22.42;62.29
69035;BME280;56091;55.756;37.412;2022-07-25T05:36:41;98243.84;;;22.43;62.92
69035;BME280;56091;55.756;37.412;2022-07-25T05:41:42;98239.56;;;22.61;61.93
69035;BME280;56091;55.756;37.412;2022-07-25T05:46:43;98251.56;;;22.73;61.02
69035;BME280;56091;55.756;37.412;2022-07-25T05:51:43;98255.09;;;22.93;61.11
69035;BME280;56091;55.756;37.412;2022-07-25T05:56:44;98240.22;;;22.94;60.02
69035;BME280;56091;55.756;37.412;2022-07-25T06:01:45;98245.41;;;22.99;60.98
69035;BME280;56091;55.756;37.412;2022-07-25T06:06:48;98239.34;;;23.29;60.55
69035;BME280;56091;55.756;37.412;2022-07-25T06:11:52;98253.19;;;23.55;58.86
69035;BME280;56091;55.756;37.412;2022-07-25T06:16:53;98232.41;;;24.04;57.20
69035;BME280;56091;55.756;37.412;2022-07-25T06:21:54;98233.53;;;24.53;55.71
69035;BME280;56091;55.756;37.412;2022-07-25T06:26:54;98236.19;;;24.76;54.74
69035;BME280;56091;55.756;37.412;2022-07-25T06:31:55;98231.41;;;25.07;54.07
69035;BME280;56091;55.756;37.412;2022-07-25T06:36:59;98248.09;;;25.18;53.90
69035;BME280;56091;55.756;37.412;2022-07-25T06:42:05;98247.09;;;24.99;54.77
69035;BME280;56091;55.756;37.412;2022-07-25T06:47:08;98235.75;;;25.04;54.58
69035;BME280;56091;55.756;37.412;2022-07-25T06:52:12;98239.25;;;25.01;54.61
69035;BME280;56091;55.756;37.412;2022-07-25T06:57:13;98245.25;;;25.10;54.33
69035;BME280;56091;55.756;37.412;2022-07-25T07:02:14;98241.59;;;24.99;54.02
69035;BME280;56091;55.756;37.412;2022-07-25T07:07:15;98247.34;;;25.21;53.43
69035;BME280;56091;55.756;37.412;2022-07-25T07:12:16;98253.22;;;25.53;52.61
69035;BME280;56091;55.756;37.412;2022-07-25T07:22:17;98252.44;;;25.52;52.83
69035;BME280;56091;55.756;37.412;2022-07-25T07:39:33;98244.06;;;26.42;50.42
69035;BME280;56091;55.756;37.412;2022-07-25T07:44:34;98256.41;;;26.55;50.70
69035;BME280;56091;55.756;37.412;2022-07-25T07:49:35;98233.91;;;26.57;50.45
69035;BME280;56091;55.756;37.412;2022-07-25T07:54:36;98236.66;;;25.94;49.88
69035;BME280;56091;55.756;37.412;2022-07-25T07:59:56;98241.09;;;25.65;50.52
69035;BME280;56091;55.756;37.412;2022-07-25T08:04:57;98237.91;;;26.04;47.46
69035;BME280;56091;55.756;37.412;2022-07-25T08:09:58;98236.13;;;26.37;47.21
69035;BME280;56091;55.756;37.412;2022-07-25T08:14:59;98232.16;;;26.30;47.73
69035;BME280;56091;55.756;37.412;2022-07-25T08:20:00;98238.81;;;26.22;47.25
69035;BME280;56091;55.756;37.412;2022-07-25T08:25:13;98242.47;;;26.37;46.98
69035;BME280;56091;55.756;37.412;2022-07-25T08:30:22;98240.69;;;26.66;46.24
69035;BME280;56091;55.756;37.412;2022-07-25T08:35:25;98234.53;;;27.05;45.20
69035;BME280;56091;55.756;37.412;2022-07-25T08:40:27;98248.47;;;27.45;43.82
69035;BME280;56091;55.756;37.412;2022-07-25T08:45:29;98266.06;;;26.86;46.61
69035;BME280;56091;55.756;37.412;2022-07-25T08:50:30;98251.97;;;26.40;48.07
69035;BME280;56091;55.756;37.412;2022-07-25T08:55:34;98241.25;;;25.83;48.53
69035;BME280;56091;55.756;37.412;2022-07-25T09:00:35;98262.72;;;25.56;50.58
69035;BME280;56091;55.756;37.412;2022-07-25T09:05:37;98255.47;;;25.06;53.61
69035;BME280;56091;55.756;37.412;2022-07-25T09:10:49;98260.16;;;24.72;54.72
69035;BME280;56091;55.756;37.412;2022-07-25T09:15:52;98263.22;;;24.97;55.04
69035;BME280;56091;55.756;37.412;2022-07-25T09:20:54;98258.97;;;25.37;54.04
69035;BME280;56091;55.756;37.412;2022-07-25T09:26:07;98257.31;;;25.29;50.54
69035;BME280;56091;55.756;37.412;2022-07-25T09:31:09;98257.03;;;25.41;48.41
69035;BME280;56091;55.756;37.412;2022-07-25T09:36:10;98247.97;;;25.41;49.90
69035;BME280;56091;55.756;37.412;2022-07-25T09:41:11;98241.75;;;25.51;50.35
69035;BME280;56091;55.756;37.412;2022-07-25T09:46:12;98256.50;;;25.66;49.85
69035;BME280;56091;55.756;37.412;2022-07-25T09:51:13;98244.78;;;25.80;49.68
69035;BME280;56091;55.756;37.412;2022-07-25T09:56:14;98252.63;;;25.74;49.58
69035;BME280;56091;55.756;37.412;2022-07-25T10:01:21;98252.47;;;25.97;49.91
69035;BME280;56091;55.756;37.412;2022-07-25T10:12:06;98245.81;;;26.05;48.89
69035;BME280;56091;55.756;37.412;2022-07-25T10:17:18;98252.72;;;25.85;48.21
69035;BME280;56091;55.756;37.412;2022-07-25T10:22:20;98219.06;;;25.72;48.41
69035;BME280;56091;55.756;37.412;2022-07-25T10:27:22;98247.78;;;26.05;48.97
69035;BME280;56091;55.756;37.412;2022-07-25T10:32:25;98231.16;;;25.98;48.62
69035;BME280;56091;55.756;37.412;2022-07-25T10:37:35;98224.22;;;26.25;47.04
69035;BME280;56091;55.756;37.412;2022-07-25T10:42:37;98223.56;;;26.50;47.05
69035;BME280;56091;55.756;37.412;2022-07-25T10:47:52;98222.94;;;26.67;46.54
69035;BME280;56091;55.756;37.412;2022-07-25T10:52:58;98221.00;;;26.75;46.34
69035;BME280;56091;55.756;37.412;2022-07-25T10:58:04;98226.75;;;26.52;45.84
69035;BME280;56091;55.756;37.412;2022-07-25T11:03:06;98215.69;;;26.52;45.97
69035;BME280;56091;55.756;37.412;2022-07-25T11:08:07;98218.94;;;26.61;46.03
69035;BME280;56091;55.756;37.412;2022-07-25T11:13:13;98189.00;;;26.85;45.15
69035;BME280;56091;55.756;37.412;2022-07-25T11:18:14;98217.94;;;27.13;44.64
69035;BME280;56091;55.756;37.412;2022-07-25T11:23:20;98218.75;;;27.17;43.76
69035;BME280;56091;55.756;37.412;2022-07-25T11:28:21;98215.25;;;27.27;43.91
69035;BME280;56091;55.756;37.412;2022-07-25T11:33:22;98209.66;;;27.20;43.23
69035;BME280;56091;55.756;37.412;2022-07-25T11:38:23;98192.97;;;26.87;42.94
69035;BME280;56091;55.756;37.412;2022-07-25T11:43:25;98208.41;;;26.96;43.24
69035;BME280;56091;55.756;37.412;2022-07-25T11:48:31;98203.34;;;27.19;43.43
69035;BME280;56091;55.756;37.412;2022-07-25T11:53:41;98189.56;;;27.30;42.82
69035;BME280;56091;55.756;37.412;2022-07-25T11:58:48;98212.09;;;27.32;43.04
69035;BME280;56091;55.756;37.412;2022-07-25T12:03:52;98190.66;;;27.15;43.21
69035;BME280;56091;55.756;37.412;2022-07-25T12:08:55;98197.88;;;27.48;42.75
69035;BME280;56091;55.756;37.412;2022-07-25T12:14:02;98199.47;;;27.81;41.77
69035;BME280;56091;55.756;37.412;2022-07-25T12:19:08;98159.84;;;27.20;42.58
69035;BME280;56091;55.756;37.412;2022-07-25T12:24:09;98187.59;;;27.49;41.91
69035;BME280;56091;55.756;37.412;2022-07-25T12:29:10;98186.00;;;27.48;42.83
69035;BME280;56091;55.756;37.412;2022-07-25T12:34:12;98162.66;;;27.49;42.82
69035;BME280;56091;55.756;37.412;2022-07-25T12:39:12;98176.13;;;28.04;42.12
69035;BME280;56091;55.756;37.412;2022-07-25T12:44:16;98154.94;;;30.66;36.65
69035;BME280;56091;55.756;37.412;2022-07-25T12:49:17;98169.47;;;34.09;29.93
69035;BME280;56091;55.756;37.412;2022-07-25T12:54:20;98162.25;;;37.18;25.52
69035;BME280;56091;55.756;37.412;2022-07-25T12:59:21;98170.41;;;37.25;25.26
69035;BME280;56091;55.756;37.412;2022-07-25T13:04:22;98157.75;;;35.88;26.77
69035;BME280;56091;55.756;37.412;2022-07-25T13:09:31;98182.44;;;32.40;31.59
69035;BME280;56091;55.756;37.412;2022-07-25T13:14:32;98122.03;;;30.23;34.89
69035;BME280;56091;55.756;37.412;2022-07-25T13:19:32;98189.44;;;29.93;36.98
69035;BME280;56091;55.756;37.412;2022-07-25T13:24:33;98196.91;;;29.51;37.13
69035;BME280;56091;55.756;37.412;2022-07-25T13:29:34;98189.97;;;29.21;38.12
69035;BME280;56091;55.756;37.412;2022-07-25T13:34:36;98193.97;;;34.04;29.87
69035;BME280;56091;55.756;37.412;2022-07-25T13:39:37;98189.22;;;37.46;24.30
69035;BME280;56091;55.756;37.412;2022-07-25T13:44:39;98189.81;;;39.35;21.71
69035;BME280;56091;55.756;37.412;2022-07-25T13:49:42;98165.38;;;36.44;24.50
69035;BME280;56091;55.756;37.412;2022-07-25T13:54:44;98181.13;;;35.33;27.32
69035;BME280;56091;55.756;37.412;2022-07-25T13:59:47;98158.25;;;37.78;23.71
69035;BME280;56091;55.756;37.412;2022-07-25T14:04:51;98171.91;;;39.48;21.07
69035;BME280;56091;55.756;37.412;2022-07-25T14:09:53;98174.50;;;39.85;21.02
69035;BME280;56091;55.756;37.412;2022-07-25T14:14:55;98157.06;;;34.10;28.67
69035;BME280;56091;55.756;37.412;2022-07-25T14:19:56;98177.06;;;34.96;28.15
69035;BME280;56091;55.756;37.412;2022-07-25T14:24:57;98163.22;;;37.83;24.11
69035;BME280;56091;55.756;37.412;2022-07-25T14:29:58;98181.13;;;39.15;22.49
69035;BME280;56091;55.756;37.412;2022-07-25T14:34:58;98178.94;;;39.52;22.17
69035;BME280;56091;55.756;37.412;2022-07-25T14:40:02;98177.16;;;40.51;20.55
69035;BME280;56091;55.756;37.412;2022-07-25T14:45:04;98185.47;;;39.92;20.95
69035;BME280;56091;55.756;37.412;2022-07-25T14:50:06;98184.16;;;41.15;19.98
69035;BME280;56091;55.756;37.412;2022-07-25T14:55:07;98177.94;;;40.28;20.21
69035;BME280;56091;55.756;37.412;2022-07-25T15:00:09;98174.19;;;40.07;20.41
69035;BME280;56091;55.756;37.412;2022-07-25T15:05:10;98147.66;;;39.65;20.74
69035;BME280;56091;55.756;37.412;2022-07-25T15:10:11;98173.69;;;38.84;21.98
69035;BME280;56091;55.756;37.412;2022-07-25T15:15:12;98190.00;;;40.67;20.13
69035;BME280;56091;55.756;37.412;2022-07-25T15:20:13;98203.91;;;40.41;20.45
69035;BME280;56091;55.756;37.412;2022-07-25T15:25:16;98187.66;;;40.51;20.02
69035;BME280;56091;55.756;37.412;2022-07-25T15:30:17;98181.97;;;39.97;20.35
69035;BME280;56091;55.756;37.412;2022-07-25T15:35:18;98177.75;;;38.83;21.81
69035;BME280;56091;55.756;37.412;2022-07-25T15:40:18;98169.84;;;38.17;22.84
69035;BME280;56091;55.756;37.412;2022-07-25T15:45:19;98193.63;;;38.16;22.89
69035;BME280;56091;55.756;37.412;2022-07-25T15:50:24;98172.31;;;37.87;23.20
69035;BME280;56091;55.756;37.412;2022-07-25T15:55:25;98218.59;;;37.45;24.15
69035;BME280;56091;55.756;37.412;2022-07-25T16:00:26;98211.41;;;35.38;27.33
69035;BME280;56091;55.756;37.412;2022-07-25T16:05:31;98207.94;;;32.82;31.60
69035;BME280;56091;55.756;37.412;2022-07-25T16:10:32;98226.47;;;31.00;35.44
69035;BME280;56091;55.756;37.412;2022-07-25T16:15:33;98231.44;;;30.06;38.24
69035;BME280;56091;55.756;37.412;2022-07-25T16:20:34;98218.19;;;29.05;40.70
69035;BME280;56091;55.756;37.412;2022-07-25T16:25:35;98225.59;;;28.02;43.94
69035;BME280;56091;55.756;37.412;2022-07-25T16:30:36;98234.41;;;26.80;47.29
69035;BME280;56091;55.756;37.412;2022-07-25T16:35:40;98221.09;;;26.30;48.75
69035;BME280;56091;55.756;37.412;2022-07-25T16:40:41;98251.84;;;26.18;49.76
69035;BME280;56091;55.756;37.412;2022-07-25T16:45:42;98239.59;;;25.71;51.07
69035;BME280;56091;55.756;37.412;2022-07-25T16:50:44;98262.34;;;25.61;52.22
69035;BME280;56091;55.756;37.412;2022-07-25T16:55:47;98291.09;;;25.56;52.90
69035;BME280;56091;55.756;37.412;2022-07-25T17:00:48;98285.53;;;25.19;54.00
69035;BME280;56091;55.756;37.412;2022-07-25T17:05:49;98296.81;;;25.37;54.28
69035;BME280;56091;55.756;37.412;2022-07-25T17:10:51;98285.44;;;25.11;54.84
69035;BME280;56091;55.756;37.412;2022-07-25T17:15:54;98284.97;;;24.72;52.11
69035;BME280;56091;55.756;37.412;2022-07-25T17:20:56;98295.09;;;24.94;50.45
69035;BME280;56091;55.756;37.412;2022-07-25T17:25:57;98287.13;;;24.86;48.92
69035;BME280;56091;55.756;37.412;2022-07-25T17:30:58;98294.81;;;24.73;48.59
69035;BME280;56091;55.756;37.412;2022-07-25T17:36:02;98244.25;;;24.35;49.39
69035;BME280;56091;55.756;37.412;2022-07-25T17:41:03;98297.66;;;24.27;52.44
69035;BME280;56091;55.756;37.412;2022-07-25T17:46:04;98275.88;;;23.72;55.12
69035;BME280;56091;55.756;37.412;2022-07-25T17:51:06;98272.72;;;23.50;56.76
69035;BME280;56091;55.756;37.412;2022-07-25T17:56:08;98264.31;;;23.20;58.12
69035;BME280;56091;55.756;37.412;2022-07-25T18:01:09;98278.81;;;23.01;59.99
69035;BME280;56091;55.756;37.412;2022-07-25T18:06:10;98281.75;;;22.53;62.45
69035;BME280;56091;55.756;37.412;2022-07-25T18:11:10;98273.38;;;22.30;62.91
69035;BME280;56091;55.756;37.412;2022-07-25T18:16:14;98264.28;;;22.10;63.67
69035;BME280;56091;55.756;37.412;2022-07-25T18:21:15;98277.72;;;22.31;63.51
69035;BME280;56091;55.756;37.412;2022-07-25T18:26:16;98235.69;;;21.95;63.99
69035;BME280;56091;55.756;37.412;2022-07-25T18:31:17;98284.72;;;22.29;63.78
69035;BME280;56091;55.756;37.412;2022-07-25T18:36:18;98263.63;;;22.33;63.30
69035;BME280;56091;55.756;37.412;2022-07-25T18:41:20;98219.22;;;21.95;63.76
69035;BME280;56091;55.756;37.412;2022-07-25T18:46:21;98252.22;;;21.99;63.97
69035;BME280;56091;55.756;37.412;2022-07-25T18:51:22;98263.09;;;22.11;63.78
69035;BME280;56091;55.756;37.412;2022-07-25T18:56:23;98274.09;;;21.95;64.28
69035;BME280;56091;55.756;37.412;2022-07-25T19:01:23;98287.72;;;21.92;64.84
69035;BME280;56091;55.756;37.412;2022-07-25T19:06:24;98302.25;;;21.92;64.89
69035;BME280;56091;55.756;37.412;2022-07-25T19:11:26;98307.75;;;21.92;64.89
69035;BME280;56091;55.756;37.412;2022-07-25T19:16:27;98277.63;;;21.64;65.16
69035;BME280;56091;55.756;37.412;2022-07-25T19:21:28;98296.03;;;21.63;65.66
69035;BME280;56091;55.756;37.412;2022-07-25T19:26:30;98282.53;;;21.42;66.25
69035;BME280;56091;55.756;37.412;2022-07-25T19:31:31;98281.28;;;21.40;66.10
69035;BME280;56091;55.756;37.412;2022-07-25T19:36:32;98310.09;;;21.34;66.53
69035;BME280;56091;55.756;37.412;2022-07-25T19:41:33;98313.19;;;21.32;67.03
69035;BME280;56091;55.756;37.412;2022-07-25T19:46:34;98315.38;;;21.26;67.11
69035;BME280;56091;55.756;37.412;2022-07-25T19:51:35;98326.34;;;21.26;66.80
69035;BME280;56091;55.756;37.412;2022-07-25T19:56:36;98328.75;;;21.28;66.77
69035;BME280;56091;55.756;37.412;2022-07-25T20:01:36;98296.19;;;20.98;67.00
69035;BME280;56091;55.756;37.412;2022-07-25T20:06:38;98322.34;;;21.24;66.95
69035;BME280;56091;55.756;37.412;2022-07-25T20:11:40;98305.41;;;21.06;67.15
69035;BME280;56091;55.756;37.412;2022-07-25T20:16:42;98341.63;;;20.99;68.30
69035;BME280;56091;55.756;37.412;2022-07-25T20:21:43;98334.22;;;20.88;68.85
69035;BME280;56091;55.756;37.412;2022-07-25T20:26:45;98336.31;;;20.78;69.43
69035;BME280;56091;55.756;37.412;2022-07-25T20:31:55;98335.50;;;20.65;69.77
69035;BME280;56091;55.756;37.412;2022-07-25T20:36:57;98347.59;;;20.77;69.83
69035;BME280;56091;55.756;37.412;2022-07-25T20:41:58;98327.41;;;20.57;69.75
69035;BME280;56091;55.756;37.412;2022-07-25T20:47:00;98331.19;;;20.64;70.32
69035;BME280;56091;55.756;37.412;2022-07-25T20:52:01;98339.16;;;20.57;70.48
69035;BME280;56091;55.756;37.412;2022-07-25T20:57:04;98338.59;;;20.52;71.18
69035;BME280;56091;55.756;37.412;2022-07-25T21:02:05;98338.13;;;20.50;71.21
69035;BME280;56091;55.756;37.412;2022-07-25T21:07:06;98339.75;;;20.38;71.78
69035;BME280;56091;55.756;37.412;2022-07-25T21:12:07;98346.03;;;20.26;72.48
69035;BME280;56091;55.756;37.412;2022-07-25T21:17:08;98346.03;;;20.26;72.36
69035;BME280;56091;55.756;37.412;2022-07-25T21:22:12;98348.19;;;20.21;72.77
69035;BME280;56091;55.756;37.412;2022-07-25T21:27:14;98343.03;;;20.19;72.06
69035;BME280;56091;55.756;37.412;2022-07-25T21:32:14;98315.88;;;20.14;72.21
69035;BME280;56091;55.756;37.412;2022-07-25T21:37:17;98292.84;;;20.03;72.51
69035;BME280;56091;55.756;37.412;2022-07-25T21:42:18;98336.75;;;20.31;72.28
69035;BME280;56091;55.756;37.412;2022-07-25T21:47:18;98336.06;;;20.22;72.85
69035;BME280;56091;55.756;37.412;2022-07-25T21:52:21;98332.75;;;20.16;72.87
69035;BME280;56091;55.756;37.412;2022-07-25T21:57:22;98341.56;;;20.22;72.70
69035;BME280;56091;55.756;37.412;2022-07-25T22:02:24;98336.41;;;20.20;73.36
69035;BME280;56091;55.756;37.412;2022-07-25T22:07:25;98336.66;;;20.15;73.49
69035;BME280;56091;55.756;37.412;2022-07-25T22:12:31;98347.59;;;20.27;73.28
69035;BME280;56091;55.756;37.412;2022-07-25T22:17:32;98328.00;;;20.13;73.03
69035;BME280;56091;55.756;37.412;2022-07-25T22:22:33;98351.03;;;20.37;72.52
69035;BME280;56091;55.756;37.412;2022-07-25T22:27:34;98358.66;;;20.56;71.88
69035;BME280;56091;55.756;37.412;2022-07-25T22:32:37;98355.94;;;20.43;72.35
69035;BME280;56091;55.756;37.412;2022-07-25T22:37:38;98352.75;;;20.29;73.26
69035;BME280;56091;55.756;37.412;2022-07-25T22:42:39;98353.78;;;20.24;73.23
69035;BME280;56091;55.756;37.412;2022-07-25T22:47:40;98360.25;;;20.20;73.63
69035;BME280;56091;55.756;37.412;2022-07-25T22:52:41;98342.69;;;19.96;74.51
69035;BME280;56091;55.756;37.412;2022-07-25T22:57:42;98349.06;;;20.00;74.80
69035;BME280;56091;55.756;37.412;2022-07-25T23:02:43;98343.59;;;19.67;75.98
69035;BME280;56091;55.756;37.412;2022-07-25T23:07:44;98352.25;;;19.69;76.40
69035;BME280;56091;55.756;37.412;2022-07-25T23:12:45;98348.47;;;19.61;76.59
69035;BME280;56091;55.756;37.412;2022-07-25T23:17:46;98358.34;;;19.54;76.94
69035;BME280;56091;55.756;37.412;2022-07-25T23:22:48;98358.47;;;19.45;77.26
69035;BME280;56091;55.756;37.412;2022-07-25T23:27:51;98339.00;;;19.25;78.05
69035;BME280;56091;55.756;37.412;2022-07-25T23:32:52;98336.75;;;19.27;78.50
69035;BME280;56091;55.756;37.412;2022-07-25T23:37:57;98346.22;;;19.30;78.22
69035;BME280;56091;55.756;37.412;2022-07-25T23:42:57;98319.34;;;19.11;78.66
69035;BME280;56091;55.756;37.412;2022-07-25T23:47:58;98342.88;;;19.24;78.74
69035;BME280;56091;55.756;37.412;2022-07-25T23:52:59;98338.28;;;19.16;79.36
69035;BME280;56091;55.756;37.412;2022-07-25T23:58:00;98338.41;;;19.20;79.16
